sensor_id;sensor_type;location;lat;lon;timestamp;temperature;humidity
20526;DHT22;10421;49.142;9.232;2023-09-30T00:00:09;20.80;99.80
20526;DHT22;10421;49.142;9.232;2023-09-30T00:02:36;20.80;99.90
20526;DHT22;10421;49.142;9.232;2023-09-30T00:05:03;20.80;99.90
20526;DHT22;10421;49.142;9.232;2023-09-30T00:07:30;20.80;99.90
20526;DHT22;10421;49.142;9.232;2023-09-30T00:09:58;20.80;99.90
20526;DHT22;10421;49.142;9.232;2023-09-30T00:12:26;20.90;99.90
20526;DHT22;10421;49.142;9.232;2023-09-30T00:14:53;20.90;99.90
20526;DHT22;10421;49.142;9.232;2023-09-30T00:17:20;20.80;99.90
20526;DHT22;10421;49.142;9.232;2023-09-30T00:19:46;20.80;99.90
20526;DHT22;10421;49.142;9.232;2023-09-30T00:22:13;20.80;99.90
20526;DHT22;10421;49.142;9.232;2023-09-30T00:24:40;20.70;99.90
20526;DHT22;10421;49.142;9.232;2023-09-30T00:27:07;20.70;99.90
20526;DHT22;10421;49.142;9.232;2023-09-30T00:29:35;20.70;99.90
20526;DHT22;10421;49.142;9.232;2023-09-30T00:32:02;20.70;99.90
20526;DHT22;10421;49.142;9.232;2023-09-30T00:34:32;20.70;99.90
20526;DHT22;10421;49.142;9.232;2023-09-30T00:37:00;20.70;99.90
20526;DHT22;10421;49.142;9.232;2023-09-30T00:39:26;20.80;99.90
20526;DHT22;10421;49.142;9.232;2023-09-30T00:41:55;20.80;99.90
20526;DHT22;10421;49.142;9.232;2023-09-30T00:44:23;20.80;99.90
20526;DHT22;10421;49.142;9.232;2023-09-30T00:46:52;20.70;99.90
20526;DHT22;10421;49.142;9.232;2023-09-30T00:49:21;20.70;99.90
20526;DHT22;10421;49.142;9.232;2023-09-30T00:51:48;20.70;99.90
20526;DHT22;10421;49.142;9.232;2023-09-30T00:54:16;20.70;99.90
20526;DHT22;10421;49.142;9.232;2023-09-30T00:56:44;20.70;99.90
20526;DHT22;10421;49.142;9.232;2023-09-30T00:59:13;20.70;99.90
20526;DHT22;10421;49.142;9.232;2023-09-30T01:01:40;20.60;99.90
20526;DHT22;10421;49.142;9.232;2023-09-30T01:04:08;20.60;99.90
20526;DHT22;10421;49.142;9.232;2023-09-30T01:06:35;20.50;99.90
20526;DHT22;10421;49.142;9.232;2023-09-30T01:09:02;20.60;99.90
20526;DHT22;10421;49.142;9.232;2023-09-30T01:11:29;20.60;99.90
20526;DHT22;10421;49.142;9.232;2023-09-30T01:13:56;20.60;99.90
20526;DHT22;10421;49.142;9.232;2023-09-30T01:16:25;20.60;99.90
20526;DHT22;10421;49.142;9.232;2023-09-30T01:18:52;20.60;99.90
20526;DHT22;10421;49.142;9.232;2023-09-30T01:21:20;20.60;99.90
20526;DHT22;10421;49.142;9.232;2023-09-30T01:23:48;20.60;99.90
20526;DHT22;10421;49.142;9.232;2023-09-30T01:26:15;20.60;99.90
20526;DHT22;10421;49.142;9.232;2023-09-30T01:28:42;20.60;99.90
20526;DHT22;10421;49.142;9.232;2023-09-30T01:31:09;20.60;99.90
20526;DHT22;10421;49.142;9.232;2023-09-30T01:33:36;20.60;99.90
20526;DHT22;10421;49.142;9.232;2023-09-30T01:36:03;20.70;99.90
20526;DHT22;10421;49.142;9.232;2023-09-30T01:38:29;20.60;99.90
20526;DHT22;10421;49.142;9.232;2023-09-30T01:40:57;20.60;99.90
20526;DHT22;10421;49.142;9.232;2023-09-30T01:43:24;20.60;99.90
20526;DHT22;10421;49.142;9.232;2023-09-30T01:45:51;20.60;99.90
20526;DHT22;10421;49.142;9.232;2023-09-30T01:48:18;20.70;99.90
20526;DHT22;10421;49.142;9.232;2023-09-30T01:50:45;20.60;99.90
20526;DHT22;10421;49.142;9.232;2023-09-30T01:53:13;20.60;99.90
20526;DHT22;10421;49.142;9.232;2023-09-30T01:55:40;20.60;99.90
20526;DHT22;10421;49.142;9.232;2023-09-30T01:58:08;20.60;99.90
20526;DHT22;10421;49.142;9.232;2023-09-30T02:00:36;20.60;99.90
20526;DHT22;10421;49.142;9.232;2023-09-30T02:03:03;20.60;99.90
20526;DHT22;10421;49.142;9.232;2023-09-30T02:05:30;20.60;99.90
20526;DHT22;10421;49.142;9.232;2023-09-30T02:07:57;20.60;99.90
20526;DHT22;10421;49.142;9.232;2023-09-30T02:10:24;20.60;99.90
20526;DHT22;10421;49.142;9.232;2023-09-30T02:12:50;20.50;99.90
20526;DHT22;10421;49.142;9.232;2023-09-30T02:15:18;20.50;99.90
20526;DHT22;10421;49.142;9.232;2023-09-30T02:17:46;20.50;99.90
20526;DHT22;10421;49.142;9.232;2023-09-30T02:20:14;20.50;99.90
20526;DHT22;10421;49.142;9.232;2023-09-30T02:22:44;20.50;99.90
20526;DHT22;10421;49.142;9.232;2023-09-30T02:25:12;20.60;99.90
20526;DHT22;10421;49.142;9.232;2023-09-30T02:27:40;20.50;99.90
20526;DHT22;10421;49.142;9.232;2023-09-30T02:30:09;20.50;99.90
20526;DHT22;10421;49.142;9.232;2023-09-30T02:32:38;20.50;99.90
20526;DHT22;10421;49.142;9.232;2023-09-30T02:35:07;20.50;99.90
20526;DHT22;10421;49.142;9.232;2023-09-30T02:37:36;20.50;99.90
20526;DHT22;10421;49.142;9.232;2023-09-30T02:40:04;20.60;99.90
20526;DHT22;10421;49.142;9.232;2023-09-30T02:42:34;20.60;99.90
20526;DHT22;10421;49.142;9.232;2023-09-30T02:45:01;20.60;99.90
20526;DHT22;10421;49.142;9.232;2023-09-30T02:47:28;20.60;99.90
20526;DHT22;10421;49.142;9.232;2023-09-30T02:49:57;20.60;99.90
20526;DHT22;10421;49.142;9.232;2023-09-30T02:52:24;20.60;99.90
20526;DHT22;10421;49.142;9.232;2023-09-30T02:54:50;20.60;99.90
20526;DHT22;10421;49.142;9.232;2023-09-30T02:57:18;20.50;99.90
20526;DHT22;10421;49.142;9.232;2023-09-30T02:59:45;20.50;99.90
20526;DHT22;10421;49.142;9.232;2023-09-30T03:02:11;20.50;99.90
20526;DHT22;10421;49.142;9.232;2023-09-30T03:04:38;20.50;99.90
20526;DHT22;10421;49.142;9.232;2023-09-30T03:07:06;20.50;99.90
20526;DHT22;10421;49.142;9.232;2023-09-30T03:09:34;20.50;99.90
20526;DHT22;10421;49.142;9.232;2023-09-30T03:12:01;20.50;99.90
20526;DHT22;10421;49.142;9.232;2023-09-30T03:14:30;20.40;99.90
20526;DHT22;10421;49.142;9.232;2023-09-30T03:16:57;20.40;99.90
20526;DHT22;10421;49.142;9.232;2023-09-30T03:19:24;20.30;99.90
20526;DHT22;10421;49.142;9.232;2023-09-30T03:21:50;20.20;99.90
20526;DHT22;10421;49.142;9.232;2023-09-30T03:24:18;20.20;99.90
20526;DHT22;10421;49.142;9.232;2023-09-30T03:26:46;20.20;99.90
20526;DHT22;10421;49.142;9.232;2023-09-30T03:29:13;20.10;99.90
20526;DHT22;10421;49.142;9.232;2023-09-30T03:31:39;20.10;99.90
20526;DHT22;10421;49.142;9.232;2023-09-30T03:34:06;20.10;99.90
20526;DHT22;10421;49.142;9.232;2023-09-30T03:36:34;20.00;99.90
20526;DHT22;10421;49.142;9.232;2023-09-30T03:39:01;19.90;99.90
20526;DHT22;10421;49.142;9.232;2023-09-30T03:41:33;19.90;99.90
20526;DHT22;10421;49.142;9.232;2023-09-30T03:44:00;19.90;99.90
20526;DHT22;10421;49.142;9.232;2023-09-30T03:46:27;19.90;99.90
20526;DHT22;10421;49.142;9.232;2023-09-30T03:48:55;19.90;99.90
20526;DHT22;10421;49.142;9.232;2023-09-30T03:51:22;19.90;99.90
20526;DHT22;10421;49.142;9.232;2023-09-30T03:53:51;19.90;99.90
20526;DHT22;10421;49.142;9.232;2023-09-30T03:56:18;19.90;99.90
20526;DHT22;10421;49.142;9.232;2023-09-30T03:58:49;20.00;99.90
20526;DHT22;10421;49.142;9.232;2023-09-30T04:01:15;20.00;99.90
20526;DHT22;10421;49.142;9.232;2023-09-30T04:03:45;20.00;99.90
20526;DHT22;10421;49.142;9.232;2023-09-30T04:06:12;20.00;99.90
20526;DHT22;10421;49.142;9.232;2023-09-30T04:08:38;20.00;99.90
20526;DHT22;10421;49.142;9.232;2023-09-30T04:11:06;20.00;99.90
20526;DHT22;10421;49.142;9.232;2023-09-30T04:13:32;20.10;99.90
20526;DHT22;10421;49.142;9.232;2023-09-30T04:16:01;20.10;99.90
20526;DHT22;10421;49.142;9.232;2023-09-30T04:18:28;20.00;99.90
20526;DHT22;10421;49.142;9.232;2023-09-30T04:20:55;20.00;99.90
20526;DHT22;10421;49.142;9.232;2023-09-30T04:23:22;20.00;99.90
20526;DHT22;10421;49.142;9.232;2023-09-30T04:25:49;20.00;99.90
20526;DHT22;10421;49.142;9.232;2023-09-30T04:28:16;20.00;99.90
20526;DHT22;10421;49.142;9.232;2023-09-30T04:30:46;19.90;99.90
20526;DHT22;10421;49.142;9.232;2023-09-30T04:33:15;19.90;99.90
20526;DHT22;10421;49.142;9.232;2023-09-30T04:35:42;19.90;99.90
20526;DHT22;10421;49.142;9.232;2023-09-30T04:38:09;19.90;99.90
20526;DHT22;10421;49.142;9.232;2023-09-30T04:40:36;19.80;99.90
20526;DHT22;10421;49.142;9.232;2023-09-30T04:43:03;19.80;99.90
20526;DHT22;10421;49.142;9.232;2023-09-30T04:45:31;19.80;99.90
20526;DHT22;10421;49.142;9.232;2023-09-30T04:47:58;19.70;99.90
20526;DHT22;10421;49.142;9.232;2023-09-30T04:50:28;19.70;99.90
20526;DHT22;10421;49.142;9.232;2023-09-30T04:52:56;19.60;99.90
20526;DHT22;10421;49.142;9.232;2023-09-30T04:55:23;19.50;99.90
20526;DHT22;10421;49.142;9.232;2023-09-30T04:57:51;19.50;99.90
20526;DHT22;10421;49.142;9.232;2023-09-30T05:00:19;19.50;99.90
20526;DHT22;10421;49.142;9.232;2023-09-30T05:02:51;19.40;99.90
20526;DHT22;10421;49.142;9.232;2023-09-30T05:05:19;19.40;99.90
20526;DHT22;10421;49.142;9.232;2023-09-30T05:07:47;19.40;99.90
20526;DHT22;10421;49.142;9.232;2023-09-30T05:10:14;19.30;99.90
20526;DHT22;10421;49.142;9.232;2023-09-30T05:12:42;19.30;99.90
20526;DHT22;10421;49.142;9.232;2023-09-30T05:15:11;19.30;99.90
20526;DHT22;10421;49.142;9.232;2023-09-30T05:17:38;19.20;99.90
20526;DHT22;10421;49.142;9.232;2023-09-30T05:20:06;19.20;99.90
20526;DHT22;10421;49.142;9.232;2023-09-30T05:22:32;19.20;99.90
20526;DHT22;10421;49.142;9.232;2023-09-30T05:25:00;19.20;99.90
20526;DHT22;10421;49.142;9.232;2023-09-30T05:27:27;19.20;99.90
20526;DHT22;10421;49.142;9.232;2023-09-30T05:29:54;19.10;99.90
20526;DHT22;10421;49.142;9.232;2023-09-30T05:32:21;19.10;99.90
20526;DHT22;10421;49.142;9.232;2023-09-30T05:34:48;19.10;99.90
20526;DHT22;10421;49.142;9.232;2023-09-30T05:37:15;19.10;99.90
20526;DHT22;10421;49.142;9.232;2023-09-30T05:39:43;19.10;99.90
20526;DHT22;10421;49.142;9.232;2023-09-30T05:42:12;19.00;99.90
20526;DHT22;10421;49.142;9.232;2023-09-30T05:44:39;19.00;99.90
20526;DHT22;10421;49.142;9.232;2023-09-30T05:47:07;19.00;99.90
20526;DHT22;10421;49.142;9.232;2023-09-30T05:49:33;19.00;99.90
20526;DHT22;10421;49.142;9.232;2023-09-30T05:52:01;18.90;99.90
20526;DHT22;10421;49.142;9.232;2023-09-30T05:54:28;18.90;99.90
20526;DHT22;10421;49.142;9.232;2023-09-30T05:56:55;18.90;99.90
20526;DHT22;10421;49.142;9.232;2023-09-30T05:59:23;18.90;99.90
20526;DHT22;10421;49.142;9.232;2023-09-30T06:01:51;18.90;99.90
20526;DHT22;10421;49.142;9.232;2023-09-30T06:04:17;18.90;99.90
20526;DHT22;10421;49.142;9.232;2023-09-30T06:06:45;18.90;99.90
20526;DHT22;10421;49.142;9.232;2023-09-30T06:09:11;18.90;99.90
20526;DHT22;10421;49.142;9.232;2023-09-30T06:11:38;18.90;99.90
20526;DHT22;10421;49.142;9.232;2023-09-30T06:14:06;18.90;99.90
20526;DHT22;10421;49.142;9.232;2023-09-30T06:16:34;19.00;99.90
20526;DHT22;10421;49.142;9.232;2023-09-30T06:19:01;19.00;99.90
20526;DHT22;10421;49.142;9.232;2023-09-30T06:21:29;19.00;99.90
20526;DHT22;10421;49.142;9.232;2023-09-30T06:23:56;19.10;99.90
20526;DHT22;10421;49.142;9.232;2023-09-30T06:26:23;19.10;99.90
20526;DHT22;10421;49.142;9.232;2023-09-30T06:28:54;19.10;99.90
20526;DHT22;10421;49.142;9.232;2023-09-30T06:31:21;19.10;99.90
20526;DHT22;10421;49.142;9.232;2023-09-30T06:33:50;19.10;99.90
20526;DHT22;10421;49.142;9.232;2023-09-30T06:36:16;19.10;99.90
20526;DHT22;10421;49.142;9.232;2023-09-30T06:38:43;19.10;99.90
20526;DHT22;10421;49.142;9.232;2023-09-30T06:41:15;19.10;99.90
20526;DHT22;10421;49.142;9.232;2023-09-30T06:43:42;19.10;99.90
20526;DHT22;10421;49.142;9.232;2023-09-30T06:46:09;19.20;99.90
20526;DHT22;10421;49.142;9.232;2023-09-30T06:48:36;19.20;99.90
20526;DHT22;10421;49.142;9.232;2023-09-30T06:51:07;19.20;99.90
20526;DHT22;10421;49.142;9.232;2023-09-30T06:53:33;19.20;99.90
20526;DHT22;10421;49.142;9.232;2023-09-30T06:56:04;19.30;99.90
20526;DHT22;10421;49.142;9.232;2023-09-30T06:58:31;19.40;99.90
20526;DHT22;10421;49.142;9.232;2023-09-30T07:00:58;19.40;99.90
20526;DHT22;10421;49.142;9.232;2023-09-30T07:03:24;19.50;99.90
20526;DHT22;10421;49.142;9.232;2023-09-30T07:05:51;19.50;99.90
20526;DHT22;10421;49.142;9.232;2023-09-30T07:08:21;19.60;99.90
20526;DHT22;10421;49.142;9.232;2023-09-30T07:10:48;19.70;99.90
20526;DHT22;10421;49.142;9.232;2023-09-30T07:13:15;19.80;99.90
20526;DHT22;10421;49.142;9.232;2023-09-30T07:15:43;19.80;99.90
20526;DHT22;10421;49.142;9.232;2023-09-30T07:18:10;19.90;99.90
20526;DHT22;10421;49.142;9.232;2023-09-30T07:20:37;20.00;99.90
20526;DHT22;10421;49.142;9.232;2023-09-30T07:23:04;20.10;99.90
20526;DHT22;10421;49.142;9.232;2023-09-30T07:25:32;20.10;99.90
20526;DHT22;10421;49.142;9.232;2023-09-30T07:28:00;20.20;99.90
20526;DHT22;10421;49.142;9.232;2023-09-30T07:30:27;20.20;99.90
20526;DHT22;10421;49.142;9.232;2023-09-30T07:32:53;20.20;99.90
20526;DHT22;10421;49.142;9.232;2023-09-30T07:35:20;20.20;99.90
20526;DHT22;10421;49.142;9.232;2023-09-30T07:37:47;20.20;99.90
20526;DHT22;10421;49.142;9.232;2023-09-30T07:40:17;20.30;99.90
20526;DHT22;10421;49.142;9.232;2023-09-30T07:42:45;20.40;99.90
20526;DHT22;10421;49.142;9.232;2023-09-30T07:45:12;20.40;99.90
20526;DHT22;10421;49.142;9.232;2023-09-30T07:47:43;20.50;99.90
20526;DHT22;10421;49.142;9.232;2023-09-30T07:50:10;20.50;99.90
20526;DHT22;10421;49.142;9.232;2023-09-30T07:52:37;20.60;99.90
20526;DHT22;10421;49.142;9.232;2023-09-30T07:55:06;20.60;99.90
20526;DHT22;10421;49.142;9.232;2023-09-30T07:57:33;20.60;99.90
20526;DHT22;10421;49.142;9.232;2023-09-30T08:00:02;20.60;99.90
20526;DHT22;10421;49.142;9.232;2023-09-30T08:02:33;20.60;99.90
20526;DHT22;10421;49.142;9.232;2023-09-30T08:05:00;20.60;99.90
20526;DHT22;10421;49.142;9.232;2023-09-30T08:07:26;20.60;99.90
20526;DHT22;10421;49.142;9.232;2023-09-30T08:09:53;20.60;99.90
20526;DHT22;10421;49.142;9.232;2023-09-30T08:12:20;20.60;99.90
20526;DHT22;10421;49.142;9.232;2023-09-30T08:14:46;20.70;99.90
20526;DHT22;10421;49.142;9.232;2023-09-30T08:17:15;20.80;99.90
20526;DHT22;10421;49.142;9.232;2023-09-30T08:19:43;20.90;99.80
20526;DHT22;10421;49.142;9.232;2023-09-30T08:22:10;21.00;99.70
20526;DHT22;10421;49.142;9.232;2023-09-30T08:24:36;21.20;99.80
20526;DHT22;10421;49.142;9.232;2023-09-30T08:27:03;21.30;99.50
20526;DHT22;10421;49.142;9.232;2023-09-30T08:29:33;21.50;99.10
20526;DHT22;10421;49.142;9.232;2023-09-30T08:32:00;21.60;98.70
20526;DHT22;10421;49.142;9.232;2023-09-30T08:34:28;21.70;98.50
20526;DHT22;10421;49.142;9.232;2023-09-30T08:36:54;21.80;98.30
20526;DHT22;10421;49.142;9.232;2023-09-30T08:39:22;21.90;98.40
20526;DHT22;10421;49.142;9.232;2023-09-30T08:41:50;22.00;98.00
20526;DHT22;10421;49.142;9.232;2023-09-30T08:44:17;22.00;97.90
20526;DHT22;10421;49.142;9.232;2023-09-30T08:46:44;22.30;97.80
20526;DHT22;10421;49.142;9.232;2023-09-30T08:49:11;22.40;97.40
20526;DHT22;10421;49.142;9.232;2023-09-30T08:51:41;22.60;97.30
20526;DHT22;10421;49.142;9.232;2023-09-30T08:54:07;22.70;97.00
20526;DHT22;10421;49.142;9.232;2023-09-30T08:56:34;22.90;96.70
20526;DHT22;10421;49.142;9.232;2023-09-30T08:59:03;23.10;96.20
20526;DHT22;10421;49.142;9.232;2023-09-30T09:01:31;23.00;95.60
20526;DHT22;10421;49.142;9.232;2023-09-30T09:03:58;22.80;95.40
20526;DHT22;10421;49.142;9.232;2023-09-30T09:06:26;22.80;95.50
20526;DHT22;10421;49.142;9.232;2023-09-30T09:08:54;22.90;95.40
20526;DHT22;10421;49.142;9.232;2023-09-30T09:11:39;23.00;95.30
20526;DHT22;10421;49.142;9.232;2023-09-30T09:14:05;23.10;95.30
20526;DHT22;10421;49.142;9.232;2023-09-30T09:16:34;23.30;95.10
20526;DHT22;10421;49.142;9.232;2023-09-30T09:19:13;23.30;94.50
20526;DHT22;10421;49.142;9.232;2023-09-30T09:21:53;23.40;94.20
20526;DHT22;10421;49.142;9.232;2023-09-30T09:24:29;23.50;93.90
20526;DHT22;10421;49.142;9.232;2023-09-30T09:27:04;23.50;93.80
20526;DHT22;10421;49.142;9.232;2023-09-30T09:29:32;23.70;93.80
20526;DHT22;10421;49.142;9.232;2023-09-30T09:32:07;23.70;93.60
20526;DHT22;10421;49.142;9.232;2023-09-30T09:34:34;23.80;93.10
20526;DHT22;10421;49.142;9.232;2023-09-30T09:37:13;23.60;93.00
20526;DHT22;10421;49.142;9.232;2023-09-30T09:39:49;23.40;92.30
20526;DHT22;10421;49.142;9.232;2023-09-30T09:42:24;23.40;92.80
20526;DHT22;10421;49.142;9.232;2023-09-30T09:44:54;23.50;92.70
20526;DHT22;10421;49.142;9.232;2023-09-30T09:47:22;23.40;92.30
20526;DHT22;10421;49.142;9.232;2023-09-30T09:49:49;23.50;91.90
20526;DHT22;10421;49.142;9.232;2023-09-30T09:52:16;23.60;91.90
20526;DHT22;10421;49.142;9.232;2023-09-30T09:54:46;23.60;91.70
20526;DHT22;10421;49.142;9.232;2023-09-30T09:57:13;23.60;91.80
20526;DHT22;10421;49.142;9.232;2023-09-30T09:59:40;23.60;91.80
20526;DHT22;10421;49.142;9.232;2023-09-30T10:02:10;23.80;92.00
20526;DHT22;10421;49.142;9.232;2023-09-30T10:04:40;24.10;92.00
20526;DHT22;10421;49.142;9.232;2023-09-30T10:07:09;24.20;91.20
20526;DHT22;10421;49.142;9.232;2023-09-30T10:09:44;24.20;91.00
20526;DHT22;10421;49.142;9.232;2023-09-30T10:12:14;24.20;91.00
20526;DHT22;10421;49.142;9.232;2023-09-30T10:14:41;24.40;90.90
20526;DHT22;10421;49.142;9.232;2023-09-30T10:17:08;24.40;89.50
20526;DHT22;10421;49.142;9.232;2023-09-30T10:19:35;24.40;88.60
20526;DHT22;10421;49.142;9.232;2023-09-30T10:22:21;24.40;89.20
20526;DHT22;10421;49.142;9.232;2023-09-30T10:24:50;24.60;87.50
20526;DHT22;10421;49.142;9.232;2023-09-30T10:27:34;24.70;88.00
20526;DHT22;10421;49.142;9.232;2023-09-30T10:30:07;24.90;87.70
20526;DHT22;10421;49.142;9.232;2023-09-30T10:33:12;25.10;87.30
20526;DHT22;10421;49.142;9.232;2023-09-30T10:35:50;25.20;85.50
20526;DHT22;10421;49.142;9.232;2023-09-30T10:38:39;25.00;85.90
20526;DHT22;10421;49.142;9.232;2023-09-30T10:41:07;24.90;86.10
20526;DHT22;10421;49.142;9.232;2023-09-30T10:43:37;24.90;86.90
20526;DHT22;10421;49.142;9.232;2023-09-30T10:46:09;25.00;86.30
20526;DHT22;10421;49.142;9.232;2023-09-30T10:48:51;25.00;86.10
20526;DHT22;10421;49.142;9.232;2023-09-30T10:51:19;25.10;85.90
20526;DHT22;10421;49.142;9.232;2023-09-30T10:53:49;25.20;85.50
20526;DHT22;10421;49.142;9.232;2023-09-30T10:56:18;25.40;84.60
20526;DHT22;10421;49.142;9.232;2023-09-30T10:58:48;25.30;83.00
20526;DHT22;10421;49.142;9.232;2023-09-30T11:01:16;25.40;83.30
20526;DHT22;10421;49.142;9.232;2023-09-30T11:03:44;25.40;83.00
20526;DHT22;10421;49.142;9.232;2023-09-30T11:06:12;25.40;82.40
20526;DHT22;10421;49.142;9.232;2023-09-30T11:08:45;25.60;81.70
20526;DHT22;10421;49.142;9.232;2023-09-30T11:11:12;25.80;81.30
20526;DHT22;10421;49.142;9.232;2023-09-30T11:13:40;25.90;80.90
20526;DHT22;10421;49.142;9.232;2023-09-30T11:16:08;26.10;79.90
20526;DHT22;10421;49.142;9.232;2023-09-30T11:18:35;26.20;79.20
20526;DHT22;10421;49.142;9.232;2023-09-30T11:21:08;26.20;78.90
20526;DHT22;10421;49.142;9.232;2023-09-30T11:23:36;26.20;78.60
20526;DHT22;10421;49.142;9.232;2023-09-30T11:26:03;26.30;79.30
20526;DHT22;10421;49.142;9.232;2023-09-30T11:28:37;26.30;77.00
20526;DHT22;10421;49.142;9.232;2023-09-30T11:31:09;26.20;77.50
20526;DHT22;10421;49.142;9.232;2023-09-30T11:33:50;26.30;76.00
20526;DHT22;10421;49.142;9.232;2023-09-30T11:36:18;26.20;75.30
20526;DHT22;10421;49.142;9.232;2023-09-30T11:38:46;26.10;75.90
20526;DHT22;10421;49.142;9.232;2023-09-30T11:41:14;26.20;76.40
20526;DHT22;10421;49.142;9.232;2023-09-30T11:43:58;26.20;76.30
20526;DHT22;10421;49.142;9.232;2023-09-30T11:46:27;26.10;75.50
20526;DHT22;10421;49.142;9.232;2023-09-30T11:48:57;26.20;74.90
20526;DHT22;10421;49.142;9.232;2023-09-30T11:51:25;26.20;73.90
20526;DHT22;10421;49.142;9.232;2023-09-30T11:53:52;26.30;73.60
20526;DHT22;10421;49.142;9.232;2023-09-30T11:56:20;26.40;73.40
20526;DHT22;10421;49.142;9.232;2023-09-30T11:58:48;26.50;73.10
20526;DHT22;10421;49.142;9.232;2023-09-30T12:01:16;26.60;72.80
20526;DHT22;10421;49.142;9.232;2023-09-30T12:03:44;26.80;72.20
20526;DHT22;10421;49.142;9.232;2023-09-30T12:06:12;27.00;72.00
20526;DHT22;10421;49.142;9.232;2023-09-30T12:08:41;27.10;71.30
20526;DHT22;10421;49.142;9.232;2023-09-30T12:11:08;27.20;70.90
20526;DHT22;10421;49.142;9.232;2023-09-30T12:13:38;27.40;70.30
20526;DHT22;10421;49.142;9.232;2023-09-30T12:16:05;27.60;69.70
20526;DHT22;10421;49.142;9.232;2023-09-30T12:18:32;27.80;69.00
20526;DHT22;10421;49.142;9.232;2023-09-30T12:21:00;27.90;67.60
20526;DHT22;10421;49.142;9.232;2023-09-30T12:23:27;28.00;66.40
20526;DHT22;10421;49.142;9.232;2023-09-30T12:25:54;28.00;66.20
20526;DHT22;10421;49.142;9.232;2023-09-30T12:28:20;28.10;66.40
20526;DHT22;10421;49.142;9.232;2023-09-30T12:30:47;28.10;65.90
20526;DHT22;10421;49.142;9.232;2023-09-30T12:33:14;28.10;65.40
20526;DHT22;10421;49.142;9.232;2023-09-30T12:35:40;28.00;65.30
20526;DHT22;10421;49.142;9.232;2023-09-30T12:38:08;28.00;63.70
20526;DHT22;10421;49.142;9.232;2023-09-30T12:40:36;28.10;63.10
20526;DHT22;10421;49.142;9.232;2023-09-30T12:43:03;28.10;63.40
20526;DHT22;10421;49.142;9.232;2023-09-30T12:45:31;28.10;63.10
20526;DHT22;10421;49.142;9.232;2023-09-30T12:47:58;28.10;62.70
20526;DHT22;10421;49.142;9.232;2023-09-30T12:50:24;28.20;62.40
20526;DHT22;10421;49.142;9.232;2023-09-30T12:52:50;28.30;62.30
20526;DHT22;10421;49.142;9.232;2023-09-30T12:55:18;28.40;62.20
20526;DHT22;10421;49.142;9.232;2023-09-30T12:57:45;28.40;61.40
20526;DHT22;10421;49.142;9.232;2023-09-30T13:00:12;28.50;61.90
20526;DHT22;10421;49.142;9.232;2023-09-30T13:02:41;28.60;61.90
20526;DHT22;10421;49.142;9.232;2023-09-30T13:05:08;28.80;61.70
20526;DHT22;10421;49.142;9.232;2023-09-30T13:07:35;28.90;61.00
20526;DHT22;10421;49.142;9.232;2023-09-30T13:10:02;29.00;60.60
20526;DHT22;10421;49.142;9.232;2023-09-30T13:12:32;29.10;60.20
20526;DHT22;10421;49.142;9.232;2023-09-30T13:14:59;28.90;59.70
20526;DHT22;10421;49.142;9.232;2023-09-30T13:17:26;28.80;59.70
20526;DHT22;10421;49.142;9.232;2023-09-30T13:19:53;28.70;59.70
20526;DHT22;10421;49.142;9.232;2023-09-30T13:22:20;28.70;59.80
20526;DHT22;10421;49.142;9.232;2023-09-30T13:24:47;28.70;59.50
20526;DHT22;10421;49.142;9.232;2023-09-30T13:27:13;28.80;59.30
20526;DHT22;10421;49.142;9.232;2023-09-30T13:29:42;28.80;59.40
20526;DHT22;10421;49.142;9.232;2023-09-30T13:32:09;28.80;59.50
20526;DHT22;10421;49.142;9.232;2023-09-30T13:34:36;28.80;59.00
20526;DHT22;10421;49.142;9.232;2023-09-30T13:37:02;28.80;59.10
20526;DHT22;10421;49.142;9.232;2023-09-30T13:39:29;28.80;58.70
20526;DHT22;10421;49.142;9.232;2023-09-30T13:41:56;28.70;58.70
20526;DHT22;10421;49.142;9.232;2023-09-30T13:44:24;28.70;58.50
20526;DHT22;10421;49.142;9.232;2023-09-30T13:46:52;28.70;59.50
20526;DHT22;10421;49.142;9.232;2023-09-30T13:49:19;28.70;58.50
20526;DHT22;10421;49.142;9.232;2023-09-30T13:51:46;28.60;57.90
20526;DHT22;10421;49.142;9.232;2023-09-30T13:54:12;28.70;58.20
20526;DHT22;10421;49.142;9.232;2023-09-30T13:56:40;28.80;57.80
20526;DHT22;10421;49.142;9.232;2023-09-30T13:59:06;28.70;57.90
20526;DHT22;10421;49.142;9.232;2023-09-30T14:01:33;28.80;58.00
20526;DHT22;10421;49.142;9.232;2023-09-30T14:04:01;28.80;57.70
20526;DHT22;10421;49.142;9.232;2023-09-30T14:06:30;28.70;57.50
20526;DHT22;10421;49.142;9.232;2023-09-30T14:08:57;28.70;57.30
20526;DHT22;10421;49.142;9.232;2023-09-30T14:11:24;28.70;56.90
20526;DHT22;10421;49.142;9.232;2023-09-30T14:13:50;28.80;56.90
20526;DHT22;10421;49.142;9.232;2023-09-30T14:16:16;28.80;56.90
20526;DHT22;10421;49.142;9.232;2023-09-30T14:18:43;28.80;56.70
20526;DHT22;10421;49.142;9.232;2023-09-30T14:21:12;28.70;56.60
20526;DHT22;10421;49.142;9.232;2023-09-30T14:23:38;28.70;56.90
20526;DHT22;10421;49.142;9.232;2023-09-30T14:26:05;28.60;57.00
20526;DHT22;10421;49.142;9.232;2023-09-30T14:28:36;28.50;56.80
20526;DHT22;10421;49.142;9.232;2023-09-30T14:31:03;28.50;57.40
20526;DHT22;10421;49.142;9.232;2023-09-30T14:33:30;28.40;56.80
20526;DHT22;10421;49.142;9.232;2023-09-30T14:35:57;28.30;56.80
20526;DHT22;10421;49.142;9.232;2023-09-30T14:38:25;28.10;56.60
20526;DHT22;10421;49.142;9.232;2023-09-30T14:40:52;27.80;56.70
20526;DHT22;10421;49.142;9.232;2023-09-30T14:43:18;27.70;57.30
20526;DHT22;10421;49.142;9.232;2023-09-30T14:45:48;27.60;57.80
20526;DHT22;10421;49.142;9.232;2023-09-30T14:48:15;27.50;58.00
20526;DHT22;10421;49.142;9.232;2023-09-30T14:50:48;27.50;58.40
20526;DHT22;10421;49.142;9.232;2023-09-30T14:53:15;27.50;59.10
20526;DHT22;10421;49.142;9.232;2023-09-30T14:55:43;27.40;59.10
20526;DHT22;10421;49.142;9.232;2023-09-30T14:58:10;27.40;58.90
20526;DHT22;10421;49.142;9.232;2023-09-30T15:00:37;27.30;58.90
20526;DHT22;10421;49.142;9.232;2023-09-30T15:03:04;27.30;58.80
20526;DHT22;10421;49.142;9.232;2023-09-30T15:05:31;27.30;58.80
20526;DHT22;10421;49.142;9.232;2023-09-30T15:07:58;27.30;59.50
20526;DHT22;10421;49.142;9.232;2023-09-30T15:10:25;27.30;59.10
20526;DHT22;10421;49.142;9.232;2023-09-30T15:12:53;27.20;59.10
20526;DHT22;10421;49.142;9.232;2023-09-30T15:15:20;27.10;58.90
20526;DHT22;10421;49.142;9.232;2023-09-30T15:17:46;27.00;59.10
20526;DHT22;10421;49.142;9.232;2023-09-30T15:20:13;26.80;59.20
20526;DHT22;10421;49.142;9.232;2023-09-30T15:22:42;26.80;59.40
20526;DHT22;10421;49.142;9.232;2023-09-30T15:25:09;26.70;59.70
20526;DHT22;10421;49.142;9.232;2023-09-30T15:27:36;26.70;59.80
20526;DHT22;10421;49.142;9.232;2023-09-30T15:30:05;26.60;59.80
20526;DHT22;10421;49.142;9.232;2023-09-30T15:32:33;26.50;60.00
20526;DHT22;10421;49.142;9.232;2023-09-30T15:34:59;26.50;60.40